Time;durP1;ratioP1;P1;durP2;ratioP2;P2;SDS_P1;SDS_P2;PMS_P1;PMS_P2;Temp;Humidity;BMP_temperature;BMP_pressure;BME280_temperature;BME280_humidity;BME280_pressure;Samples;Min_cycle;Max_cycle;Signal;HPM_P1;HPM_P2
2023/10/26 00:00:27;;;;;;;46.97;35.07;;;;;;;;;;5015559;28;20551;-73
2023/10/26 00:02:53;;;;;;;51.83;36.13;;;;;;;;;;5016012;28;20215;-73
2023/10/26 00:05:19;;;;;;;49.90;36.50;;;;;;;;;;5014096;28;20723;-73
2023/10/26 00:07:45;;;;;;;48.33;34.77;;;;;;;;;;5015538;28;20184;-73
2023/10/26 00:10:11;;;;;;;47.73;34.97;;;;;;;;;;5015352;28;20186;-73
2023/10/26 00:12:36;;;;;;;49.63;37.47;;;;;;;;;;5015043;28;20214;-73
2023/10/26 00:15:03;;;;;;;49.50;35.23;;;;;;;;;;5013696;28;20176;-74
2023/10/26 00:17:29;;;;;;;51.13;35.97;;;;;;;;;;5013637;28;20190;-73
2023/10/26 00:19:55;;;;;;;48.47;35.70;;;;;;;;;;5015392;28;20230;-73
2023/10/26 00:22:22;;;;;;;49.87;36.73;;;;;;;;;;5015118;28;20215;-73
2023/10/26 00:24:48;;;;;;;49.80;36.10;;;;;;;;;;5015129;28;20183;-74
2023/10/26 00:27:14;;;;;;;46.97;34.93;;;;;;;;;;5013766;28;20230;-74
2023/10/26 00:29:40;;;;;;;47.37;34.23;;;;;;;;;;5014706;28;20234;-74
2023/10/26 00:32:07;;;;;;;47.90;35.47;;;;;;;;;;5014565;28;20211;-74
2023/10/26 00:34:33;;;;;;;48.03;33.83;;;;;;;;;;5015223;28;20222;-74
2023/10/26 00:36:59;;;;;;;46.03;35.20;;;;;;;;;;5015419;28;20180;-73
2023/10/26 00:39:25;;;;;;;44.87;33.80;;;;;;;;;;5013373;28;20190;-73
2023/10/26 00:41:52;;;;;;;43.90;33.23;;;;;;;;;;5014895;28;20199;-73
2023/10/26 00:44:17;;;;;;;45.40;34.87;;;;;;;;;;5015133;28;20630;-74
2023/10/26 00:46:44;;;;;;;43.07;32.33;;;;;;;;;;5014821;28;20230;-73
2023/10/26 00:49:12;;;;;;;40.87;31.73;;;;;;;;;;5014805;28;20183;-73
2023/10/26 00:51:39;;;;;;;44.27;32.30;;;;;;;;;;5014671;28;20609;-74
2023/10/26 00:54:07;;;;;;;38.43;31.07;;;;;;;;;;5014743;28;20223;-73
2023/10/26 00:56:33;;;;;;;40.47;29.63;;;;;;;;;;5014479;28;20249;-74
2023/10/26 00:58:59;;;;;;;42.90;31.60;;;;;;;;;;5014662;28;20259;-73
2023/10/26 01:01:27;;;;;;;41.80;31.90;;;;;;;;;;5014043;28;20219;-74
2023/10/26 01:03:54;;;;;;;41.10;31.20;;;;;;;;;;5014478;28;20184;-73
2023/10/26 01:06:20;;;;;;;40.90;32.17;;;;;;;;;;5012808;28;20179;-73
2023/10/26 01:08:46;;;;;;;40.77;31.27;;;;;;;;;;5014152;28;20183;-73
2023/10/26 01:11:12;;;;;;;41.10;32.77;;;;;;;;;;5014198;28;20216;-73
2023/10/26 01:13:38;;;;;;;38.83;32.13;;;;;;;;;;5012701;28;20581;-72
2023/10/26 01:16:04;;;;;;;40.70;30.47;;;;;;;;;;5012495;28;20184;-71
2023/10/26 01:18:31;;;;;;;35.60;29.40;;;;;;;;;;5014492;28;20183;-72
2023/10/26 01:20:57;;;;;;;38.53;29.20;;;;;;;;;;5012850;28;20573;-72
2023/10/26 01:23:23;;;;;;;40.33;30.10;;;;;;;;;;5012788;28;20215;-71
2023/10/26 01:25:52;;;;;;;38.33;28.60;;;;;;;;;;5013813;28;20251;-72
2023/10/26 01:28:17;;;;;;;39.67;31.77;;;;;;;;;;5013728;28;20172;-72
2023/10/26 01:30:43;;;;;;;37.43;29.70;;;;;;;;;;5013567;28;20175;-71
2023/10/26 01:33:09;;;;;;;40.40;31.80;;;;;;;;;;5012465;28;20207;-72
2023/10/26 01:35:41;;;;;;;43.00;31.00;;;;;;;;;;5012399;28;20183;-72
2023/10/26 01:38:07;;;;;;;37.47;31.00;;;;;;;;;;5013875;28;20631;-71
2023/10/26 01:40:33;;;;;;;35.47;30.53;;;;;;;;;;5013813;28;20183;-72
2023/10/26 01:42:59;;;;;;;41.57;31.00;;;;;;;;;;5013095;28;20187;-73
2023/10/26 01:45:25;;;;;;;35.77;29.50;;;;;;;;;;5017634;28;20673;-72
2023/10/26 01:47:54;;;;;;;42.60;32.27;;;;;;;;;;5017728;28;20183;-72
2023/10/26 01:50:20;;;;;;;44.13;33.63;;;;;;;;;;5016481;28;20269;-72
2023/10/26 01:52:46;;;;;;;39.83;31.20;;;;;;;;;;5019866;28;20208;-72
2023/10/26 01:55:12;;;;;;;43.47;31.47;;;;;;;;;;5019008;28;20179;-72
2023/10/26 01:57:37;;;;;;;47.43;32.60;;;;;;;;;;5017583;28;20203;-72
2023/10/26 02:00:04;;;;;;;49.07;35.97;;;;;;;;;;5017912;28;20654;-72
2023/10/26 02:02:30;;;;;;;42.53;34.60;;;;;;;;;;5015735;28;20219;-72
2023/10/26 02:04:56;;;;;;;45.10;33.13;;;;;;;;;;5021006;28;20206;-72
2023/10/26 02:07:22;;;;;;;46.77;34.20;;;;;;;;;;5030461;28;20709;-72
2023/10/26 02:09:47;;;;;;;39.93;32.77;;;;;;;;;;5031448;28;20277;-72
2023/10/26 02:12:13;;;;;;;39.03;31.70;;;;;;;;;;5019104;28;20207;-72
2023/10/26 02:14:39;;;;;;;45.27;31.80;;;;;;;;;;5018646;28;20650;-73
2023/10/26 02:17:05;;;;;;;43.80;33.93;;;;;;;;;;5016295;28;20176;-72
2023/10/26 02:19:31;;;;;;;44.03;35.70;;;;;;;;;;5016859;28;20712;-72
2023/10/26 02:21:57;;;;;;;46.50;32.70;;;;;;;;;;5017537;28;20218;-72
2023/10/26 02:24:23;;;;;;;39.00;32.37;;;;;;;;;;5016695;28;20184;-72
2023/10/26 02:26:49;;;;;;;42.30;32.93;;;;;;;;;;5017395;28;20186;-72
2023/10/26 02:29:15;;;;;;;40.80;31.50;;;;;;;;;;5016014;28;20211;-70
2023/10/26 02:31:41;;;;;;;43.20;31.63;;;;;;;;;;5016034;28;20209;-71
2023/10/26 02:34:07;;;;;;;40.67;31.20;;;;;;;;;;5015423;28;20188;-71
2023/10/26 02:36:33;;;;;;;40.17;30.90;;;;;;;;;;5016331;28;20186;-71
2023/10/26 02:38:59;;;;;;;47.37;33.30;;;;;;;;;;5016447;28;20175;-71
2023/10/26 02:41:25;;;;;;;43.53;33.40;;;;;;;;;;5015130;28;20196;-71
2023/10/26 02:43:51;;;;;;;42.57;33.30;;;;;;;;;;5016306;28;20361;-71
2023/10/26 02:46:17;;;;;;;41.83;31.70;;;;;;;;;;5016472;28;20183;-71
2023/10/26 02:48:43;;;;;;;44.83;32.83;;;;;;;;;;5017240;28;20649;-71
2023/10/26 02:51:09;;;;;;;41.57;33.23;;;;;;;;;;5014986;28;20231;-71
2023/10/26 02:53:35;;;;;;;42.53;32.23;;;;;;;;;;5014599;28;20215;-71
2023/10/26 02:56:01;;;;;;;41.83;32.53;;;;;;;;;;5014993;28;20692;-71
2023/10/26 02:58:27;;;;;;;41.93;32.40;;;;;;;;;;5014596;28;20187;-72
2023/10/26 03:00:54;;;;;;;42.17;33.80;;;;;;;;;;5015575;28;20196;-71
2023/10/26 03:03:20;;;;;;;42.67;33.43;;;;;;;;;;5014792;28;20184;-71
2023/10/26 03:05:46;;;;;;;47.00;36.47;;;;;;;;;;5016232;28;20176;-71
2023/10/26 03:08:12;;;;;;;47.10;35.20;;;;;;;;;;5016047;28;20282;-71
2023/10/26 03:10:38;;;;;;;48.17;35.83;;;;;;;;;;5016612;28;20186;-71
2023/10/26 03:13:07;;;;;;;43.57;33.33;;;;;;;;;;5014639;28;20208;-71
2023/10/26 03:15:33;;;;;;;44.07;33.93;;;;;;;;;;5014505;28;20189;-71
2023/10/26 03:17:59;;;;;;;44.07;33.00;;;;;;;;;;5016060;28;20184;-71
2023/10/26 03:20:25;;;;;;;47.07;34.57;;;;;;;;;;5015633;28;20303;-71
2023/10/26 03:22:51;;;;;;;45.00;34.17;;;;;;;;;;5014361;28;20262;-71
2023/10/26 03:25:17;;;;;;;39.87;33.20;;;;;;;;;;5014225;28;20623;-72
2023/10/26 03:27:43;;;;;;;44.03;34.43;;;;;;;;;;5014239;28;20180;-71
2023/10/26 03:30:09;;;;;;;47.20;33.60;;;;;;;;;;5015884;28;20183;-71
2023/10/26 03:32:36;;;;;;;39.73;32.63;;;;;;;;;;5015662;28;20235;-71
2023/10/26 03:35:02;;;;;;;46.37;33.67;;;;;;;;;;5014805;28;20634;-71
2023/10/26 03:37:28;;;;;;;43.37;33.63;;;;;;;;;;5014076;28;20207;-71
2023/10/26 03:39:54;;;;;;;42.50;33.47;;;;;;;;;;5015604;28;20183;-71
2023/10/26 03:42:20;;;;;;;48.27;32.80;;;;;;;;;;5016165;28;20242;-71
2023/10/26 03:44:46;;;;;;;50.27;35.60;;;;;;;;;;5014436;28;20183;-72
2023/10/26 03:47:13;;;;;;;43.93;34.67;;;;;;;;;;5015769;28;20661;-72
2023/10/26 03:49:39;;;;;;;44.47;34.47;;;;;;;;;;5015709;28;20266;-72
2023/10/26 03:52:05;;;;;;;47.60;34.53;;;;;;;;;;5015036;28;20216;-72
2023/10/26 03:54:31;;;;;;;43.33;34.13;;;;;;;;;;5014942;28;20179;-73
2023/10/26 03:56:57;;;;;;;45.17;33.97;;;;;;;;;;5013466;28;20194;-72
2023/10/26 03:59:23;;;;;;;43.90;33.17;;;;;;;;;;5015077;28;20577;-72
2023/10/26 04:01:49;;;;;;;45.30;34.57;;;;;;;;;;5013498;28;20635;-72
2023/10/26 04:04:15;;;;;;;48.73;34.77;;;;;;;;;;4997541;28;20187;-72
2023/10/26 04:06:41;;;;;;;46.63;36.37;;;;;;;;;;5015307;28;20176;-72
2023/10/26 04:09:07;;;;;;;49.23;36.77;;;;;;;;;;5017585;28;20176;-73
2023/10/26 04:11:33;;;;;;;45.70;35.13;;;;;;;;;;5016428;28;20630;-73
2023/10/26 04:13:59;;;;;;;43.10;34.20;;;;;;;;;;5015914;28;20290;-73
2023/10/26 04:16:26;;;;;;;43.63;34.73;;;;;;;;;;5015331;28;20187;-73
2023/10/26 04:18:52;;;;;;;43.13;34.63;;;;;;;;;;5014108;28;20187;-73
2023/10/26 04:21:18;;;;;;;43.10;35.57;;;;;;;;;;5037688;22;20657;-70
2023/10/26 04:23:44;;;;;;;43.57;34.90;;;;;;;;;;5012565;28;20180;-72
2023/10/26 04:26:12;;;;;;;44.57;34.70;;;;;;;;;;5012290;28;20337;-71
2023/10/26 04:28:38;;;;;;;46.07;35.30;;;;;;;;;;5013527;28;20176;-71
2023/10/26 04:31:05;;;;;;;44.00;34.83;;;;;;;;;;5013924;28;20180;-72
2023/10/26 04:33:31;;;;;;;41.83;33.20;;;;;;;;;;4993715;28;20211;-70
2023/10/26 04:35:59;;;;;;;47.87;36.87;;;;;;;;;;4994058;28;20176;-71
2023/10/26 04:38:25;;;;;;;46.07;34.80;;;;;;;;;;4993813;28;20188;-72
2023/10/26 04:40:52;;;;;;;44.70;33.83;;;;;;;;;;4994226;28;20179;-70
2023/10/26 04:43:17;;;;;;;42.47;34.33;;;;;;;;;;4994022;28;20204;-71
2023/10/26 04:45:43;;;;;;;44.23;32.97;;;;;;;;;;4994149;28;20231;-70
2023/10/26 04:48:09;;;;;;;45.60;34.20;;;;;;;;;;4994529;28;20180;-73
2023/10/26 04:50:35;;;;;;;45.57;34.57;;;;;;;;;;4994949;28;20188;-70
2023/10/26 04:53:02;;;;;;;45.27;35.13;;;;;;;;;;4996894;28;20777;-71
2023/10/26 04:55:33;;;;;;;46.57;34.77;;;;;;;;;;4992997;28;20188;-72
2023/10/26 04:58:00;;;;;;;44.37;33.50;;;;;;;;;;4992914;28;20169;-71
2023/10/26 05:00:29;;;;;;;42.60;33.03;;;;;;;;;;4992493;28;20188;-71
2023/10/26 05:02:55;;;;;;;41.73;32.87;;;;;;;;;;4993739;28;20196;-71
2023/10/26 05:05:21;;;;;;;40.63;33.67;;;;;;;;;;4992172;28;20180;-72
2023/10/26 05:07:47;;;;;;;41.20;32.60;;;;;;;;;;4992577;28;20305;-70
2023/10/26 05:10:14;;;;;;;42.10;33.57;;;;;;;;;;4995359;28;20189;-72
2023/10/26 05:12:40;;;;;;;44.30;33.27;;;;;;;;;;4993602;28;20224;-71
2023/10/26 05:15:06;;;;;;;47.47;33.43;;;;;;;;;;4992535;28;20605;-72
2023/10/26 05:17:32;;;;;;;42.03;32.90;;;;;;;;;;4992962;28;20176;-71
2023/10/26 05:19:58;;;;;;;42.30;32.33;;;;;;;;;;4992004;28;20290;-71
2023/10/26 05:22:25;;;;;;;43.43;33.43;;;;;;;;;;4992781;28;20291;-71
2023/10/26 05:24:51;;;;;;;51.23;33.40;;;;;;;;;;4993166;28;20215;-71
2023/10/26 05:27:18;;;;;;;43.37;32.30;;;;;;;;;;4993094;28;20531;-71
2023/10/26 05:29:44;;;;;;;44.63;32.47;;;;;;;;;;4992193;28;20236;-72
2023/10/26 05:32:10;;;;;;;44.27;32.83;;;;;;;;;;4991539;28;20208;-72
2023/10/26 05:34:36;;;;;;;42.30;32.43;;;;;;;;;;4993155;28;20547;-72
2023/10/26 05:37:02;;;;;;;41.97;32.33;;;;;;;;;;4991628;28;20180;-72
2023/10/26 05:39:28;;;;;;;43.20;32.00;;;;;;;;;;4991573;28;20557;-71
2023/10/26 05:41:54;;;;;;;43.97;32.53;;;;;;;;;;4992687;28;20208;-72
2023/10/26 05:44:20;;;;;;;45.33;31.97;;;;;;;;;;4993327;28;20180;-71
2023/10/26 05:46:46;;;;;;;41.10;31.67;;;;;;;;;;4991780;28;20176;-71
2023/10/26 05:49:12;;;;;;;41.87;32.40;;;;;;;;;;4991902;28;20188;-71
2023/10/26 05:51:38;;;;;;;43.73;31.70;;;;;;;;;;4992877;28;20283;-72
2023/10/26 05:54:04;;;;;;;45.37;33.17;;;;;;;;;;4992916;28;20221;-72
2023/10/26 05:56:29;;;;;;;42.80;32.57;;;;;;;;;;4991602;28;20191;-72
2023/10/26 05:58:55;;;;;;;43.67;32.33;;;;;;;;;;4991770;28;20713;-72
2023/10/26 06:01:21;;;;;;;45.30;33.30;;;;;;;;;;4993246;28;20643;-72
2023/10/26 06:03:47;;;;;;;42.57;32.33;;;;;;;;;;4992839;28;20193;-73
2023/10/26 06:06:13;;;;;;;42.80;33.77;;;;;;;;;;4993011;28;20247;-72
2023/10/26 06:08:39;;;;;;;44.27;32.40;;;;;;;;;;4991486;28;20191;-70
2023/10/26 06:11:05;;;;;;;41.17;31.83;;;;;;;;;;4992939;28;20665;-71
2023/10/26 06:13:31;;;;;;;39.37;32.27;;;;;;;;;;4992269;28;20235;-73
2023/10/26 06:15:57;;;;;;;39.27;30.83;;;;;;;;;;4993944;28;20311;-73
2023/10/26 06:18:23;;;;;;;43.27;32.83;;;;;;;;;;4993725;28;20295;-72
2023/10/26 06:20:57;;;;;;;46.90;32.63;;;;;;;;;;4991781;28;20187;-71
2023/10/26 06:23:23;;;;;;;45.60;35.23;;;;;;;;;;4991806;28;20266;-71
2023/10/26 06:25:49;;;;;;;46.17;35.13;;;;;;;;;;4992443;28;20220;-69
2023/10/26 06:28:17;;;;;;;46.90;34.87;;;;;;;;;;4994666;28;20180;-71
2023/10/26 06:30:43;;;;;;;55.90;36.73;;;;;;;;;;4997524;28;20259;-71
2023/10/26 06:33:10;;;;;;;50.33;37.17;;;;;;;;;;4998773;28;20251;-70
2023/10/26 06:35:36;;;;;;;52.97;36.73;;;;;;;;;;4996706;28;20272;-71
2023/10/26 06:38:02;;;;;;;53.67;36.53;;;;;;;;;;4995168;28;20652;-72
2023/10/26 06:40:27;;;;;;;49.60;36.17;;;;;;;;;;4996188;28;20267;-71
2023/10/26 06:42:53;;;;;;;50.03;34.53;;;;;;;;;;4996847;28;20200;-71
2023/10/26 06:45:19;;;;;;;48.97;34.07;;;;;;;;;;4996334;28;20184;-72
2023/10/26 06:47:45;;;;;;;54.83;35.97;;;;;;;;;;4996391;28;20550;-72
2023/10/26 06:50:11;;;;;;;51.03;35.00;;;;;;;;;;4997716;28;20554;-72
2023/10/26 06:52:37;;;;;;;50.47;34.80;;;;;;;;;;4996562;28;20732;-72
2023/10/26 06:55:03;;;;;;;50.77;34.03;;;;;;;;;;4995713;28;20287;-71
2023/10/26 06:57:33;;;;;;;47.13;34.13;;;;;;;;;;4996995;28;20177;-72
2023/10/26 06:59:59;;;;;;;50.80;35.83;;;;;;;;;;4997885;28;20188;-73
2023/10/26 07:02:25;;;;;;;48.43;34.80;;;;;;;;;;4995543;28;20746;-71
2023/10/26 07:04:51;;;;;;;47.67;36.43;;;;;;;;;;4996431;28;20216;-72
2023/10/26 07:07:17;;;;;;;46.80;35.03;;;;;;;;;;4996718;28;20180;-73
2023/10/26 07:09:43;;;;;;;46.80;32.93;;;;;;;;;;4996015;28;20232;-73
2023/10/26 07:12:09;;;;;;;46.80;33.73;;;;;;;;;;4995814;28;20212;-72
2023/10/26 07:14:36;;;;;;;50.77;34.20;;;;;;;;;;4996068;28;20180;-71
2023/10/26 07:17:02;;;;;;;41.60;32.00;;;;;;;;;;4994964;28;20633;-71
2023/10/26 07:19:28;;;;;;;42.37;31.47;;;;;;;;;;4997180;28;20338;-71
2023/10/26 07:21:54;;;;;;;44.40;33.03;;;;;;;;;;4998922;28;20269;-72
2023/10/26 07:24:20;;;;;;;39.90;30.27;;;;;;;;;;5002598;28;20697;-72
2023/10/26 07:26:49;;;;;;;38.63;30.77;;;;;;;;;;5002580;28;20200;-71
2023/10/26 07:29:15;;;;;;;39.90;30.30;;;;;;;;;;5005923;28;20176;-71
2023/10/26 07:31:41;;;;;;;36.27;29.90;;;;;;;;;;4994856;28;20696;-72
2023/10/26 07:34:07;;;;;;;38.80;30.27;;;;;;;;;;4993764;28;20733;-71
2023/10/26 07:36:33;;;;;;;32.93;27.60;;;;;;;;;;4996160;28;20655;-71
2023/10/26 07:39:02;;;;;;;35.73;28.73;;;;;;;;;;4998126;28;20203;-71
2023/10/26 07:41:28;;;;;;;35.57;28.80;;;;;;;;;;4996305;28;20204;-71
2023/10/26 07:43:54;;;;;;;38.43;28.23;;;;;;;;;;5000633;28;20176;-71
2023/10/26 07:46:21;;;;;;;34.50;28.07;;;;;;;;;;5000182;28;20682;-71
2023/10/26 07:48:47;;;;;;;31.07;24.87;;;;;;;;;;4997278;28;20284;-71
2023/10/26 07:51:13;;;;;;;28.83;24.20;;;;;;;;;;4997480;28;20291;-71
2023/10/26 07:53:39;;;;;;;27.73;24.73;;;;;;;;;;4995803;28;20235;-71
2023/10/26 07:56:05;;;;;;;27.13;22.73;;;;;;;;;;4997799;28;20252;-71
2023/10/26 07:58:32;;;;;;;26.93;24.13;;;;;;;;;;4994499;28;20263;-71
2023/10/26 08:00:59;;;;;;;27.70;22.73;;;;;;;;;;4993674;28;20761;-71
2023/10/26 08:03:27;;;;;;;25.03;22.40;;;;;;;;;;4993445;28;20749;-70
2023/10/26 08:05:57;;;;;;;25.93;23.13;;;;;;;;;;4995053;28;20238;-68
2023/10/26 08:08:23;;;;;;;27.10;22.33;;;;;;;;;;4994183;28;20179;-68
2023/10/26 08:10:49;;;;;;;26.57;22.00;;;;;;;;;;4993311;28;20256;-66
2023/10/26 08:13:15;;;;;;;25.73;22.90;;;;;;;;;;4994001;28;20212;-67
2023/10/26 08:15:42;;;;;;;27.47;23.53;;;;;;;;;;4992633;28;20239;-66
2023/10/26 08:18:08;;;;;;;27.17;22.90;;;;;;;;;;4994060;28;20180;-66
2023/10/26 08:20:34;;;;;;;27.47;24.47;;;;;;;;;;4993849;28;20180;-65
2023/10/26 08:23:02;;;;;;;29.23;25.03;;;;;;;;;;4993825;28;20224;-66
2023/10/26 08:25:28;;;;;;;27.40;24.37;;;;;;;;;;4993793;28;20212;-67
2023/10/26 08:27:54;;;;;;;28.03;24.67;;;;;;;;;;4993846;28;20620;-67
2023/10/26 08:30:20;;;;;;;28.73;25.67;;;;;;;;;;4992559;28;20275;-67
2023/10/26 08:32:49;;;;;;;28.97;25.87;;;;;;;;;;4993708;28;20354;-67
2023/10/26 08:35:15;;;;;;;28.80;25.70;;;;;;;;;;4992402;28;20181;-68
2023/10/26 08:37:41;;;;;;;25.10;22.47;;;;;;;;;;4993698;28;20250;-68
2023/10/26 08:40:13;;;;;;;24.53;21.47;;;;;;;;;;4992376;28;20200;-67
2023/10/26 08:42:40;;;;;;;24.80;21.33;;;;;;;;;;4993751;28;20334;-67
2023/10/26 08:45:12;;;;;;;23.83;21.23;;;;;;;;;;4992154;28;20213;-67
2023/10/26 08:47:39;;;;;;;25.13;21.50;;;;;;;;;;4992216;28;20184;-68
2023/10/26 08:50:05;;;;;;;21.20;19.00;;;;;;;;;;4992428;28;20583;-68
2023/10/26 08:52:31;;;;;;;22.17;19.80;;;;;;;;;;4992568;28;20211;-68
2023/10/26 08:54:57;;;;;;;23.07;20.60;;;;;;;;;;4993806;28;20204;-67
2023/10/26 08:57:23;;;;;;;23.57;20.60;;;;;;;;;;4993608;28;20184;-67
2023/10/26 08:59:49;;;;;;;21.67;19.37;;;;;;;;;;4992115;28;20180;-67
2023/10/26 09:02:15;;;;;;;22.47;20.07;;;;;;;;;;4993226;28;20200;-67
2023/10/26 09:05:02;;;;;;;22.67;19.90;;;;;;;;;;4993230;28;20180;-68
2023/10/26 09:07:28;;;;;;;23.63;19.23;;;;;;;;;;4992025;28;20180;-68
2023/10/26 09:09:54;;;;;;;21.63;19.33;;;;;;;;;;4991874;28;20188;-67
2023/10/26 09:12:20;;;;;;;22.67;20.37;;;;;;;;;;4993057;28;20223;-67
2023/10/26 09:14:58;;;;;;;21.37;19.10;;;;;;;;;;4991717;28;20180;-67
2023/10/26 09:17:28;;;;;;;23.07;19.67;;;;;;;;;;4993066;28;20177;-68
2023/10/26 09:19:54;;;;;;;22.83;19.57;;;;;;;;;;4993069;28;20525;-68
2023/10/26 09:22:40;;;;;;;23.23;20.80;;;;;;;;;;4991476;28;20220;-67
2023/10/26 09:25:07;;;;;;;22.47;20.07;;;;;;;;;;4991755;28;20180;-69
2023/10/26 09:27:34;;;;;;;21.70;19.27;;;;;;;;;;4991701;28;20487;-69
2023/10/26 09:30:00;;;;;;;19.60;17.30;;;;;;;;;;4992988;28;20177;-68
2023/10/26 09:32:36;;;;;;;22.37;18.10;;;;;;;;;;4991525;28;20212;-68
2023/10/26 09:35:03;;;;;;;19.50;17.23;;;;;;;;;;4991644;28;20180;-69
2023/10/26 09:37:29;;;;;;;18.93;16.93;;;;;;;;;;4991700;28;20558;-69
2023/10/26 09:39:55;;;;;;;18.60;16.60;;;;;;;;;;4992828;28;20673;-69
2023/10/26 09:42:21;;;;;;;18.87;16.97;;;;;;;;;;4991450;28;20631;-67
2023/10/26 09:44:47;;;;;;;17.53;15.27;;;;;;;;;;4992847;28;20181;-67
2023/10/26 09:47:13;;;;;;;18.80;16.00;;;;;;;;;;4992692;28;20669;-67
2023/10/26 09:49:39;;;;;;;16.50;14.80;;;;;;;;;;4992832;28;20235;-66
2023/10/26 09:52:05;;;;;;;16.23;14.53;;;;;;;;;;4991338;28;20204;-68
2023/10/26 09:54:36;;;;;;;17.27;14.97;;;;;;;;;;4992911;28;20184;-67
2023/10/26 09:57:08;;;;;;;16.87;15.07;;;;;;;;;;4994658;28;20241;-67
2023/10/26 09:59:34;;;;;;;16.30;14.60;;;;;;;;;;4998202;28;20191;-68
2023/10/26 10:02:12;;;;;;;14.90;13.40;;;;;;;;;;5001897;28;20200;-67
2023/10/26 10:04:38;;;;;;;13.67;12.27;;;;;;;;;;4994739;28;20160;-67
2023/10/26 10:07:05;;;;;;;13.53;12.13;;;;;;;;;;4995917;28;20327;-68
2023/10/26 10:09:31;;;;;;;11.13;9.47;;;;;;;;;;4996530;28;20177;-67
2023/10/26 10:12:15;;;;;;;11.47;10.27;;;;;;;;;;4994910;28;20232;-67
2023/10/26 10:14:47;;;;;;;13.13;11.83;;;;;;;;;;4996456;28;20173;-68
2023/10/26 10:17:17;;;;;;;12.63;11.30;;;;;;;;;;4994892;28;20183;-67
2023/10/26 10:19:46;;;;;;;12.50;11.13;;;;;;;;;;4994703;28;20185;-67
2023/10/26 10:22:30;;;;;;;12.63;11.33;;;;;;;;;;4996048;28;20263;-67
2023/10/26 10:24:56;;;;;;;13.20;11.80;;;;;;;;;;4996048;28;20184;-67
2023/10/26 10:27:22;;;;;;;13.47;10.37;;;;;;;;;;4996547;28;20224;-68
2023/10/26 10:29:48;;;;;;;16.23;10.87;;;;;;;;;;4995886;28;20184;-67
2023/10/26 10:32:34;;;;;;;12.17;10.27;;;;;;;;;;4996204;28;20204;-67
2023/10/26 10:35:03;;;;;;;11.20;10.20;;;;;;;;;;4995842;28;20264;-67
2023/10/26 10:37:29;;;;;;;11.17;9.93;;;;;;;;;;4994613;28;20181;-68
2023/10/26 10:40:09;;;;;;;12.00;10.23;;;;;;;;;;4994679;28;20184;-68
2023/10/26 10:42:35;;;;;;;11.30;10.20;;;;;;;;;;4996010;28;20204;-67
2023/10/26 10:45:03;;;;;;;11.57;10.50;;;;;;;;;;4994368;28;20188;-68
2023/10/26 10:47:29;;;;;;;11.30;10.20;;;;;;;;;;5019346;23;20228;-66
2023/10/26 10:50:14;;;;;;;11.57;10.33;;;;;;;;;;4997008;28;20612;-67
2023/10/26 10:52:41;;;;;;;11.07;9.97;;;;;;;;;;4996378;28;20200;-67
2023/10/26 10:55:07;;;;;;;10.57;9.57;;;;;;;;;;4995285;28;20208;-69
2023/10/26 10:57:33;;;;;;;10.90;9.80;;;;;;;;;;4996536;28;20203;-69
2023/10/26 10:59:59;;;;;;;11.20;10.07;;;;;;;;;;4996667;28;20177;-68
2023/10/26 11:02:25;;;;;;;10.87;9.70;;;;;;;;;;4996544;28;20263;-69
2023/10/26 11:04:58;;;;;;;11.00;9.90;;;;;;;;;;4994956;28;20279;-70
2023/10/26 11:07:27;;;;;;;9.53;8.67;;;;;;;;;;4994753;28;20204;-69
2023/10/26 11:10:00;;;;;;;9.93;8.70;;;;;;;;;;4996146;28;20263;-69
2023/10/26 11:12:27;;;;;;;9.80;8.80;;;;;;;;;;4995744;28;20204;-70
2023/10/26 11:14:54;;;;;;;9.57;8.60;;;;;;;;;;4994664;28;20188;-69
2023/10/26 11:17:20;;;;;;;10.83;9.73;;;;;;;;;;4994029;28;20216;-69
2023/10/26 11:19:47;;;;;;;11.43;10.33;;;;;;;;;;4996186;28;20643;-69
2023/10/26 11:22:16;;;;;;;11.00;9.83;;;;;;;;;;4996189;28;20212;-69
2023/10/26 11:24:42;;;;;;;10.40;9.03;;;;;;;;;;4994730;28;20192;-69
2023/10/26 11:27:09;;;;;;;10.33;9.33;;;;;;;;;;4996002;28;20204;-69
2023/10/26 11:29:35;;;;;;;10.00;9.00;;;;;;;;;;4995755;28;20183;-69
2023/10/26 11:32:01;;;;;;;10.10;9.20;;;;;;;;;;4994262;28;20203;-69
2023/10/26 11:34:28;;;;;;;11.37;9.23;;;;;;;;;;4995474;28;20227;-69
2023/10/26 11:36:54;;;;;;;10.37;9.33;;;;;;;;;;4996090;28;20196;-70
2023/10/26 11:39:20;;;;;;;11.20;8.67;;;;;;;;;;4994209;28;20211;-69
2023/10/26 11:41:56;;;;;;;9.70;8.70;;;;;;;;;;4995815;28;20173;-69
2023/10/26 11:44:26;;;;;;;12.50;9.40;;;;;;;;;;4995589;28;20180;-69
2023/10/26 11:46:59;;;;;;;12.27;9.70;;;;;;;;;;4994117;28;20590;-69
2023/10/26 11:49:38;;;;;;;10.67;9.60;;;;;;;;;;4996085;28;20215;-70
2023/10/26 11:52:04;;;;;;;11.40;10.03;;;;;;;;;;4995796;28;20214;-69
2023/10/26 11:54:30;;;;;;;10.80;9.67;;;;;;;;;;4994543;28;20207;-69
2023/10/26 11:56:56;;;;;;;10.07;9.17;;;;;;;;;;4995658;28;20554;-69
2023/10/26 11:59:22;;;;;;;11.70;9.30;;;;;;;;;;4995396;28;20647;-69
2023/10/26 12:01:48;;;;;;;6.97;6.27;;;;;;;;;;4995323;28;20180;-67
2023/10/26 12:04:14;;;;;;;6.00;5.50;;;;;;;;;;4993711;28;20189;-67
2023/10/26 12:06:40;;;;;;;5.77;5.27;;;;;;;;;;4995276;28;20228;-69
2023/10/26 12:09:06;;;;;;;8.77;7.87;;;;;;;;;;4993613;28;20188;-69
2023/10/26 12:11:32;;;;;;;8.53;7.73;;;;;;;;;;4993663;28;20188;-70
2023/10/26 12:13:58;;;;;;;8.60;7.80;;;;;;;;;;4994840;28;20657;-69
2023/10/26 12:16:25;;;;;;;8.67;7.87;;;;;;;;;;4994577;28;20227;-69
2023/10/26 12:18:52;;;;;;;8.13;6.07;;;;;;;;;;4993705;28;20180;-69
2023/10/26 12:21:18;;;;;;;7.07;4.97;;;;;;;;;;4995075;28;20674;-69
2023/10/26 12:23:44;;;;;;;5.50;4.80;;;;;;;;;;4994412;28;20235;-69
2023/10/26 12:26:10;;;;;;;4.93;4.20;;;;;;;;;;4994822;28;20181;-69
2023/10/26 12:28:36;;;;;;;4.87;4.47;;;;;;;;;;4994308;28;20255;-70
2023/10/26 12:31:02;;;;;;;5.60;3.93;;;;;;;;;;4994605;28;20661;-69
2023/10/26 12:33:28;;;;;;;3.90;3.60;;;;;;;;;;4993325;28;20212;-69
2023/10/26 12:35:54;;;;;;;4.27;3.87;;;;;;;;;;4994998;28;20180;-69
2023/10/26 12:38:22;;;;;;;5.40;4.10;;;;;;;;;;4993168;28;20227;-69
2023/10/26 12:40:48;;;;;;;10.87;7.47;;;;;;;;;;4994598;28;20188;-69
2023/10/26 12:43:14;;;;;;;9.87;7.57;;;;;;;;;;4993413;28;20238;-69
2023/10/26 12:45:40;;;;;;;9.30;7.20;;;;;;;;;;4993227;28;20181;-71
2023/10/26 12:48:06;;;;;;;6.03;4.90;;;;;;;;;;4994233;28;20219;-69
2023/10/26 12:50:32;;;;;;;3.70;3.40;;;;;;;;;;4994544;28;20259;-69
2023/10/26 12:52:58;;;;;;;4.70;3.40;;;;;;;;;;4994402;28;20200;-69
2023/10/26 12:55:24;;;;;;;3.50;3.20;;;;;;;;;;4994400;28;20255;-69
2023/10/26 12:57:53;;;;;;;4.20;3.50;;;;;;;;;;4993029;28;20192;-69
2023/10/26 13:00:19;;;;;;;3.90;3.60;;;;;;;;;;4993150;28;20195;-69
2023/10/26 13:02:45;;;;;;;3.73;3.40;;;;;;;;;;4993260;28;20243;-69
2023/10/26 13:05:11;;;;;;;4.10;3.70;;;;;;;;;;4993297;28;20212;-69
2023/10/26 13:07:37;;;;;;;4.70;4.03;;;;;;;;;;4995600;28;20200;-69
2023/10/26 13:10:04;;;;;;;4.40;4.00;;;;;;;;;;4994490;28;20612;-69
2023/10/26 13:12:29;;;;;;;5.70;4.17;;;;;;;;;;4993120;28;20236;-69
2023/10/26 13:14:55;;;;;;;6.33;4.33;;;;;;;;;;4994396;28;20180;-68
2023/10/26 13:17:21;;;;;;;3.80;3.50;;;;;;;;;;4994436;28;20192;-68
2023/10/26 13:19:47;;;;;;;3.70;3.40;;;;;;;;;;4994762;28;20239;-69
2023/10/26 13:22:13;;;;;;;5.40;3.50;;;;;;;;;;4994636;28;20184;-69
2023/10/26 13:24:39;;;;;;;4.23;3.50;;;;;;;;;;4993100;28;20661;-68
2023/10/26 13:27:07;;;;;;;4.10;3.20;;;;;;;;;;4995931;28;20199;-68
2023/10/26 13:29:33;;;;;;;3.67;3.37;;;;;;;;;;4996938;28;20188;-68
2023/10/26 13:31:58;;;;;;;4.10;3.70;;;;;;;;;;4994204;28;20180;-69
2023/10/26 13:34:24;;;;;;;4.63;3.87;;;;;;;;;;4992691;28;20283;-70
2023/10/26 13:36:50;;;;;;;4.17;3.50;;;;;;;;;;4993956;28;20200;-69
2023/10/26 13:39:16;;;;;;;6.23;4.50;;;;;;;;;;4994915;28;20187;-69
2023/10/26 13:41:42;;;;;;;6.07;5.10;;;;;;;;;;4998256;28;20185;-69
2023/10/26 13:44:08;;;;;;;6.17;5.57;;;;;;;;;;4997923;28;20227;-69
2023/10/26 13:46:34;;;;;;;6.37;4.90;;;;;;;;;;4997561;28;20200;-69
2023/10/26 13:49:01;;;;;;;7.03;6.03;;;;;;;;;;4996550;28;20553;-69
2023/10/26 13:51:27;;;;;;;5.70;5.20;;;;;;;;;;4997720;28;20638;-69
2023/10/26 13:53:53;;;;;;;6.57;4.80;;;;;;;;;;4996282;28;20204;-69
2023/10/26 13:56:19;;;;;;;6.90;5.70;;;;;;;;;;4995956;28;20192;-69
2023/10/26 13:58:45;;;;;;;6.27;5.67;;;;;;;;;;4997631;28;20181;-69
2023/10/26 14:01:12;;;;;;;5.93;5.43;;;;;;;;;;4997952;28;20645;-69
2023/10/26 14:03:38;;;;;;;5.87;5.27;;;;;;;;;;4997297;28;20181;-69
2023/10/26 14:06:04;;;;;;;6.43;5.20;;;;;;;;;;4995777;28;20258;-69
2023/10/26 14:08:30;;;;;;;7.87;5.43;;;;;;;;;;4996937;28;20197;-69
2023/10/26 14:10:55;;;;;;;7.87;5.20;;;;;;;;;;4995724;28;20189;-69
2023/10/26 14:13:22;;;;;;;7.13;6.00;;;;;;;;;;4996020;28;20204;-69
2023/10/26 14:15:48;;;;;;;7.77;6.80;;;;;;;;;;4995574;28;20271;-70
2023/10/26 14:18:13;;;;;;;7.27;6.67;;;;;;;;;;4995565;28;20240;-69
2023/10/26 14:20:40;;;;;;;6.47;5.87;;;;;;;;;;4996823;28;20207;-69